Time;durP1;ratioP1;P1;durP2;ratioP2;P2;SDS_P1;SDS_P2;PMS_P1;PMS_P2;Temp;Humidity;BMP_temperature;BMP_pressure;BME280_temperature;BME280_humidity;BME280_pressure;Samples;Min_cycle;Max_cycle;Signal;HPM_P1;HPM_P2
2022/09/01 00:01:41;;;;;;;6.62;4.53;;;;;;;13.34;75.26;97500.69;1664636;86;25826;-80
2022/09/01 00:04:12;;;;;;;8.08;4.33;;;;;;;13.32;75.26;97496.01;1642044;87;26274;-80
2022/09/01 00:06:39;;;;;;;7.12;4.30;;;;;;;13.30;75.36;97503.53;1664650;85;25513;-79
2022/09/01 00:09:12;;;;;;;5.85;4.28;;;;;;;13.30;75.38;97492.69;1644725;87;27480;-80
2022/09/01 00:11:41;;;;;;;5.85;3.87;;;;;;;13.31;75.25;97496.23;1661463;84;33165;-80
2022/09/01 00:14:10;;;;;;;6.62;4.53;;;;;;;13.26;75.21;97496.94;1636016;87;25859;-80
2022/09/01 00:16:37;;;;;;;6.58;4.20;;;;;;;13.23;75.22;97492.48;1641685;86;25826;-80
2022/09/01 00:19:04;;;;;;;6.60;4.05;;;;;;;13.20;75.30;97503.77;1686229;84;25812;-80
2022/09/01 00:21:36;;;;;;;8.40;3.77;;;;;;;13.16;75.29;97495.25;1727934;83;28040;-79
2022/09/01 00:24:04;;;;;;;9.18;4.22;;;;;;;13.14;75.34;97498.73;1714845;83;25929;-80
2022/09/01 00:26:31;;;;;;;8.00;4.40;;;;;;;13.10;75.36;97502.91;1714865;83;25751;-80
2022/09/01 00:28:57;;;;;;;9.58;4.25;;;;;;;13.04;75.36;97506.50;1716184;81;26512;-80
2022/09/01 00:31:24;;;;;;;7.87;4.30;;;;;;;13.03;75.45;97511.64;1732867;81;25785;-79
2022/09/01 00:33:51;;;;;;;7.80;4.40;;;;;;;13.01;75.47;97501.55;1732693;82;27424;-80
2022/09/01 00:36:19;;;;;;;7.78;4.80;;;;;;;13.00;75.51;97501.25;1732701;82;25956;-80
2022/09/01 00:38:46;;;;;;;6.60;4.50;;;;;;;12.98;75.48;97501.47;1732629;82;25924;-80
2022/09/01 00:41:14;;;;;;;6.42;4.03;;;;;;;12.95;75.50;97498.37;1732415;81;26496;-80
2022/09/01 00:43:48;;;;;;;6.87;4.05;;;;;;;12.94;75.57;97502.13;1732796;81;25841;-79
2022/09/01 00:46:20;;;;;;;8.65;5.15;;;;;;;12.92;75.55;97494.77;1732718;82;27371;-80
2022/09/01 00:48:55;;;;;;;6.03;4.33;;;;;;;12.90;75.58;97499.06;1732786;82;25774;-79
2022/09/01 00:51:22;;;;;;;7.72;4.50;;;;;;;12.89;75.60;97501.98;1657209;86;25827;-80
2022/09/01 00:53:49;;;;;;;7.90;4.67;;;;;;;12.87;75.67;97495.95;1656981;85;25743;-80
2022/09/01 00:56:16;;;;;;;9.20;5.15;;;;;;;12.85;75.71;97491.28;1657441;86;25902;-80
2022/09/01 00:58:43;;;;;;;7.95;4.65;;;;;;;12.85;75.72;97489.93;1657422;86;28311;-80
2022/09/01 01:01:11;;;;;;;4.90;3.62;;;;;;;12.84;75.70;97492.33;1657326;85;26033;-82
2022/09/01 01:03:41;;;;;;;6.25;4.00;;;;;;;12.83;75.72;97493.38;1657235;86;25808;-80
2022/09/01 01:06:08;;;;;;;6.10;4.15;;;;;;;12.81;75.66;97495.48;1654577;86;26485;-80
2022/09/01 01:08:39;;;;;;;7.22;4.00;;;;;;;12.80;75.71;97496.56;1649310;86;25817;-81
2022/09/01 01:11:16;;;;;;;6.58;3.90;;;;;;;12.78;75.64;97502.72;1656574;85;27395;-80
2022/09/01 01:14:15;;;;;;;8.45;4.28;;;;;;;12.75;75.63;97497.74;1635053;86;25857;-80
2022/09/01 01:16:45;;;;;;;5.80;4.10;;;;;;;12.71;75.64;97500.58;1626316;88;26486;-81
2022/09/01 01:23:01;;;;;;;8.50;4.30;;;;;;;12.66;75.84;97490.44;1597242;89;25853;-79
2022/09/01 01:25:39;;;;;;;8.20;4.20;;;;;;;12.62;75.87;97488.69;1599987;88;28057;-80
2022/09/01 01:28:17;;;;;;;10.32;4.65;;;;;;;12.61;75.93;97489.73;1603679;89;25826;-80
2022/09/01 01:30:51;;;;;;;8.63;4.75;;;;;;;12.59;75.93;97490.48;1605901;89;25915;-81
2022/09/01 01:33:26;;;;;;;8.10;4.70;;;;;;;12.58;75.93;97490.17;1605706;89;25872;-80
2022/09/01 01:35:56;;;;;;;10.35;4.40;;;;;;;12.56;75.92;97493.63;1580555;89;25758;-81
2022/09/01 01:38:22;;;;;;;6.72;4.55;;;;;;;12.54;75.92;97493.05;1577053;89;27413;-80
2022/09/01 01:40:52;;;;;;;5.80;3.87;;;;;;;12.53;75.88;97491.38;1576208;91;25505;-80
2022/09/01 01:43:21;;;;;;;6.15;4.05;;;;;;;12.50;75.98;97490.46;1576251;91;25379;-80
2022/09/01 01:45:54;;;;;;;9.78;4.40;;;;;;;12.50;75.99;97494.52;1555557;91;25781;-82
2022/09/01 01:48:23;;;;;;;6.15;3.72;;;;;;;12.51;75.98;97487.23;1595843;88;25386;-80
2022/09/01 01:50:52;;;;;;;7.20;4.15;;;;;;;12.49;76.02;97490.16;1586127;90;27397;-80
2022/09/01 01:53:18;;;;;;;6.20;3.52;;;;;;;12.49;76.01;97486.63;1585848;89;25857;-81
2022/09/01 01:55:49;;;;;;;6.90;4.20;;;;;;;12.45;76.00;97486.22;1586315;90;25330;-80
2022/09/01 02:00:49;;;;;;;8.85;3.98;;;;;;;12.41;76.04;97481.49;1536056;92;25796;-80
2022/09/01 02:03:20;;;;;;;5.78;3.83;;;;;;;12.38;76.07;97482.76;1536055;93;27391;-79
2022/09/01 02:05:51;;;;;;;7.83;4.10;;;;;;;12.36;76.09;97481.31;1530583;93;25792;-81
2022/09/01 02:08:24;;;;;;;6.83;4.15;;;;;;;12.35;76.15;97473.72;1504729;95;25873;-80
2022/09/01 02:10:52;;;;;;;6.60;4.22;;;;;;;12.35;76.17;97475.59;1504681;95;25823;-80
2022/09/01 02:13:24;;;;;;;5.53;4.25;;;;;;;12.35;76.13;97477.77;1548224;91;25820;-80
2022/09/01 02:15:54;;;;;;;7.37;4.28;;;;;;;12.33;76.12;97479.04;1566287;90;27457;-80
2022/09/01 02:18:29;;;;;;;6.28;4.10;;;;;;;12.30;76.15;97477.63;1531292;92;25461;-80
2022/09/01 02:21:08;;;;;;;7.08;4.28;;;;;;;12.26;76.19;97480.45;1498727;95;26009;-80
2022/09/01 02:23:40;;;;;;;7.22;4.03;;;;;;;12.23;76.27;97477.66;1501140;95;25867;-79
2022/09/01 02:26:15;;;;;;;8.18;4.08;;;;;;;12.21;76.33;97475.70;1471336;96;25402;-80
2022/09/01 02:28:48;;;;;;;6.65;4.37;;;;;;;12.21;76.28;97477.05;1471527;97;28415;-80
2022/09/01 02:31:18;;;;;;;6.00;4.08;;;;;;;12.19;76.29;97475.11;1469514;96;25973;-80
2022/09/01 02:33:47;;;;;;;8.38;4.05;;;;;;;12.19;76.34;97474.28;1493401;95;25846;-79
2022/09/01 02:36:18;;;;;;;7.53;4.03;;;;;;;12.14;76.35;97473.58;1468587;95;26024;-79
2022/09/01 02:38:48;;;;;;;8.80;4.17;;;;;;;12.14;76.37;97474.09;1468188;96;25906;-80
2022/09/01 02:41:19;;;;;;;7.35;4.45;;;;;;;12.11;76.46;97481.30;1468489;96;27424;-79
2022/09/01 02:43:48;;;;;;;7.47;4.17;;;;;;;12.10;76.45;97482.34;1468415;97;25563;-80
2022/09/01 02:46:22;;;;;;;7.22;4.60;;;;;;;12.10;76.51;97482.34;1468392;96;25473;-80
2022/09/01 02:48:44;;;;;;;6.03;3.77;;;;;;;12.09;76.44;97480.67;1470772;96;27584;-80
2022/09/01 02:51:24;;;;;;;6.78;4.20;;;;;;;12.07;76.49;97474.68;1468418;96;25886;-80
2022/09/01 02:54:09;;;;;;;;;;;;;;;;;;;;;
2022/09/01 02:56:32;;;;;;;6.92;3.95;;;;;;;12.05;76.54;97470.01;1465000;97;26017;-80
2022/09/01 02:59:04;;;;;;;7.47;3.87;;;;;;;12.04;76.59;97480.00;1494839;94;25404;-80
2022/09/01 03:01:32;;;;;;;6.60;4.20;;;;;;;12.03;76.58;97474.80;1536268;93;26442;-80
2022/09/01 03:04:07;;;;;;;7.55;4.58;;;;;;;12.00;76.58;97479.29;1546801;91;26003;-80
2022/09/01 03:06:36;;;;;;;7.67;4.37;;;;;;;11.99;76.60;97473.58;1531219;93;27379;-83
2022/09/01 03:09:14;;;;;;;6.83;3.83;;;;;;;11.97;76.60;97472.44;1498717;93;25886;-81
2022/09/01 03:11:45;;;;;;;5.45;3.80;;;;;;;11.96;76.63;97476.70;1523076;93;26616;-82
2022/09/01 03:14:15;;;;;;;5.87;3.90;;;;;;;11.94;76.62;97474.77;1499180;93;25923;-81
2022/09/01 03:16:40;;;;;;;9.58;3.95;;;;;;;11.94;76.73;97473.41;1528317;92;25845;-81
2022/09/01 03:19:11;;;;;;;7.08;4.20;;;;;;;11.92;76.75;97468.22;1504309;95;26318;-79
2022/09/01 03:21:43;;;;;;;7.10;3.87;;;;;;;11.89;76.75;97468.65;1505727;95;25842;-80
2022/09/01 03:24:15;;;;;;;7.05;3.90;;;;;;;11.87;76.74;97464.80;1511108;94;25848;-81
2022/09/01 03:26:52;;;;;;;8.60;4.20;;;;;;;11.86;76.75;97465.84;1465004;96;26376;-81
2022/09/01 03:29:21;;;;;;;7.72;4.53;;;;;;;11.87;76.76;97469.38;1491994;94;25855;-80
2022/09/01 03:31:51;;;;;;;6.17;3.92;;;;;;;11.87;76.77;97470.22;1514572;94;28505;-80
2022/09/01 03:34:22;;;;;;;12.30;4.30;;;;;;;11.86;76.76;97463.14;1530027;91;25891;-80
2022/09/01 03:36:53;;;;;;;7.65;4.15;;;;;;;11.86;76.77;97464.50;1537056;91;25838;-79
2022/09/01 03:39:25;;;;;;;7.30;4.08;;;;;;;11.84;76.84;97465.23;1559363;91;25576;-81
2022/09/01 03:44:32;;;;;;;5.72;4.30;;;;;;;11.85;76.81;97471.47;1532975;92;27356;-80
2022/09/01 03:47:03;;;;;;;6.22;3.92;;;;;;;11.84;76.82;97467.94;1516181;94;25911;-81
2022/09/01 03:49:36;;;;;;;10.88;4.20;;;;;;;11.82;76.89;97468.70;1516357;93;25631;-81
2022/09/01 03:52:03;;;;;;;7.33;4.45;;;;;;;11.81;76.94;97461.64;1519116;93;26536;-81
2022/09/01 03:54:31;;;;;;;5.97;3.90;;;;;;;11.81;76.99;97468.39;1519692;93;25673;-80
2022/09/01 03:56:58;;;;;;;7.97;4.20;;;;;;;11.80;77.01;97469.44;1519511;94;27481;-83
2022/09/01 03:59:30;;;;;;;6.67;4.20;;;;;;;11.80;76.99;97469.44;1533824;92;25856;-80
2022/09/01 04:01:58;;;;;;;7.95;4.60;;;;;;;11.79;77.08;97471.84;1545146;91;25376;-80
2022/09/01 04:04:25;;;;;;;7.87;4.42;;;;;;;11.79;77.11;97469.13;1545362;92;26576;-80
2022/09/01 04:06:52;;;;;;;6.97;4.53;;;;;;;11.79;77.13;97468.30;1545448;92;25823;-83
2022/09/01 04:09:19;;;;;;;6.28;4.37;;;;;;;11.80;77.14;97468.09;1553782;91;27625;-81
2022/09/01 04:11:47;;;;;;;9.08;3.95;;;;;;;11.80;77.16;97470.80;1569469;91;25847;-80
2022/09/01 04:14:14;;;;;;;7.95;4.15;;;;;;;11.77;77.20;97472.58;1569494;91;25886;-81
2022/09/01 04:19:29;;;;;;;6.62;3.70;;;;;;;11.78;77.19;97474.23;1590475;90;25761;-79
2022/09/01 04:21:59;;;;;;;7.80;3.37;;;;;;;11.77;77.29;97467.69;1590555;89;28222;-80
2022/09/01 04:24:29;;;;;;;5.87;4.20;;;;;;;11.76;77.32;97470.91;1590502;90;26133;-82
2022/09/01 04:26:58;;;;;;;9.63;3.75;;;;;;;11.76;77.41;97468.20;1590689;89;25881;-82
2022/09/01 04:29:26;;;;;;;6.50;3.87;;;;;;;11.78;77.37;97472.88;1590373;90;25753;-79
2022/09/01 04:32:00;;;;;;;5.53;3.67;;;;;;;11.78;77.34;97483.70;1590745;90;25816;-82
2022/09/01 04:34:26;;;;;;;7.28;4.05;;;;;;;11.77;77.28;97476.63;1592518;88;27595;-81
2022/09/01 04:36:54;;;;;;;9.23;4.12;;;;;;;11.76;77.32;97474.14;1594393;89;25394;-82
2022/09/01 04:39:21;;;;;;;8.93;3.90;;;;;;;11.75;77.29;97483.27;1594607;89;25812;-79
2022/09/01 04:41:49;;;;;;;6.50;4.10;;;;;;;11.73;77.26;97474.01;1594524;89;25767;-80
2022/09/01 04:44:17;;;;;;;7.70;4.58;;;;;;;11.73;77.27;97478.59;1594787;89;25892;-81
2022/09/01 04:46:47;;;;;;;11.65;4.37;;;;;;;11.71;77.21;97480.16;1598978;87;27456;-82
2022/09/01 04:49:18;;;;;;;6.33;4.33;;;;;;;11.69;77.22;97482.79;1605664;89;25881;-84
2022/09/01 04:51:47;;;;;;;7.20;4.37;;;;;;;11.68;77.18;97475.72;1595753;88;25892;-81
2022/09/01 04:54:15;;;;;;;7.42;4.42;;;;;;;11.66;77.18;97484.05;1629147;87;26465;-81
2022/09/01 04:56:45;;;;;;;7.35;4.35;;;;;;;11.64;77.17;97475.31;1643528;87;26107;-81
2022/09/01 04:59:13;;;;;;;9.65;5.00;;;;;;;11.63;77.13;97474.17;1643187;87;27631;-81
2022/09/01 05:01:43;;;;;;;11.33;4.70;;;;;;;11.60;77.16;97476.78;1643132;87;25819;-82
2022/09/01 05:04:16;;;;;;;7.83;4.60;;;;;;;11.58;77.11;97482.95;1643312;87;25934;-80
2022/09/01 05:06:49;;;;;;;7.47;4.72;;;;;;;11.56;77.14;97480.98;1643317;87;25862;-82
2022/09/01 05:09:18;;;;;;;7.28;4.78;;;;;;;11.52;77.15;97481.09;1640941;87;25826;-80
2022/09/01 05:11:45;;;;;;;9.05;5.42;;;;;;;11.49;77.20;97483.70;1643324;87;27586;-83
2022/09/01 05:14:12;;;;;;;5.85;4.55;;;;;;;11.50;77.25;97481.83;1653314;85;25756;-83
2022/09/01 05:16:43;;;;;;;8.05;5.17;;;;;;;11.48;77.22;97473.10;1667989;85;25845;-82
2022/09/01 05:19:13;;;;;;;15.18;6.00;;;;;;;11.49;77.22;97482.88;1662420;86;25823;-80
2022/09/01 05:24:17;;;;;;;17.87;8.38;;;;;;;11.49;77.32;97485.05;1591668;90;28291;-81
2022/09/01 05:26:46;;;;;;;17.70;8.55;;;;;;;11.52;77.43;97481.09;1593297;90;25815;-81
2022/09/01 05:29:16;;;;;;;21.57;9.48;;;;;;;11.56;77.57;97483.69;1593497;90;25824;-81
2022/09/01 05:31:46;;;;;;;16.17;7.87;;;;;;;11.59;77.61;97480.56;1608056;87;26470;-81
2022/09/01 05:34:18;;;;;;;21.07;8.98;;;;;;;11.61;77.67;97482.50;1616246;87;25811;-81
2022/09/01 05:36:45;;;;;;;18.87;8.15;;;;;;;11.63;77.78;97477.71;1615920;87;28274;-80
2022/09/01 05:39:12;;;;;;;17.62;8.05;;;;;;;11.67;77.89;97480.30;1616089;88;25595;-81
2022/09/01 05:41:39;;;;;;;16.00;8.20;;;;;;;11.72;78.05;97479.11;1616412;88;26080;-81
2022/09/01 05:44:07;;;;;;;14.85;7.15;;;;;;;11.78;78.06;97476.11;1616250;88;25679;-80
2022/09/01 05:46:38;;;;;;;12.43;6.28;;;;;;;11.84;78.06;97476.58;1616098;87;26991;-81
2022/09/01 05:49:08;;;;;;;13.50;6.25;;;;;;;11.86;77.92;97479.38;1616302;88;28254;-79
2022/09/01 05:51:35;;;;;;;13.65;6.12;;;;;;;11.85;77.82;97479.06;1616112;87;25996;-82
2022/09/01 05:54:03;;;;;;;11.20;5.53;;;;;;;11.90;77.85;97488.72;1616288;88;26020;-80
2022/09/01 05:56:31;;;;;;;12.45;6.10;;;;;;;11.93;77.77;97490.69;1616294;87;25792;-82
2022/09/01 05:59:01;;;;;;;9.70;5.97;;;;;;;11.95;77.76;97496.72;1616373;88;25756;-81
2022/09/01 06:01:32;;;;;;;9.45;5.45;;;;;;;11.92;77.81;97491.21;1616087;88;27458;-81
2022/09/01 06:03:58;;;;;;;10.10;5.78;;;;;;;11.87;77.69;97494.56;1612930;88;25515;-81
2022/09/01 06:06:29;;;;;;;11.53;5.85;;;;;;;11.94;77.92;97496.41;1616271;88;25787;-80
2022/09/01 06:08:57;;;;;;;9.65;5.30;;;;;;;12.03;78.08;97505.91;1616460;88;25799;-81
2022/09/01 06:11:27;;;;;;;9.00;6.03;;;;;;;12.12;78.01;97498.66;1616401;87;25804;-81
2022/09/01 06:13:57;;;;;;;11.90;5.85;;;;;;;12.23;77.95;97499.84;1616215;88;27602;-80
2022/09/01 06:16:24;;;;;;;12.00;5.28;;;;;;;12.33;77.90;97497.98;1616957;86;25614;-81
2022/09/01 06:18:52;;;;;;;10.50;5.85;;;;;;;12.42;77.89;97502.10;1620079;88;25379;-82
2022/09/01 06:21:23;;;;;;;9.90;6.10;;;;;;;12.51;77.88;97504.83;1668835;84;26498;-81
2022/09/01 06:23:54;;;;;;;9.63;5.67;;;;;;;12.57;77.87;97504.77;1726094;81;25775;-80
2022/09/01 06:26:31;;;;;;;9.53;5.53;;;;;;;12.64;77.83;97502.02;1758056;81;27535;-80
2022/09/01 06:29:02;;;;;;;10.35;5.95;;;;;;;12.73;77.78;97510.16;1757903;81;25725;-82
2022/09/01 06:31:37;;;;;;;12.15;5.90;;;;;;;12.80;77.79;97512.81;1758077;81;25713;-80
2022/09/01 06:34:07;;;;;;;9.60;5.80;;;;;;;12.86;77.62;97507.32;1758107;81;26607;-80
2022/09/01 06:36:39;;;;;;;9.95;5.78;;;;;;;12.94;77.46;97507.02;1758140;81;25797;-80
2022/09/01 06:39:05;;;;;;;8.57;5.67;;;;;;;13.04;77.39;97502.99;1758556;81;28039;-81
2022/09/01 06:41:32;;;;;;;9.93;5.42;;;;;;;13.09;77.33;97500.41;1758204;81;25691;-80
2022/09/01 06:44:00;;;;;;;9.55;5.22;;;;;;;13.19;77.41;97498.87;1758128;81;25781;-81
2022/09/01 06:46:27;;;;;;;7.90;4.97;;;;;;;13.32;77.23;97507.38;1758174;81;26559;-80
2022/09/01 06:48:57;;;;;;;10.03;5.42;;;;;;;13.45;77.11;97507.23;1758058;81;25834;-79
2022/09/01 06:51:24;;;;;;;7.30;4.87;;;;;;;13.56;77.24;97509.70;1758127;81;28246;-81
2022/09/01 06:53:55;;;;;;;7.20;5.00;;;;;;;13.68;77.17;97507.88;1757734;81;25757;-80
2022/09/01 06:56:20;;;;;;;10.05;4.97;;;;;;;13.78;76.97;97508.16;1757686;81;25682;-79
2022/09/01 06:58:47;;;;;;;6.42;4.97;;;;;;;13.88;76.58;97504.39;1758215;81;26314;-81
2022/09/01 07:01:18;;;;;;;6.37;4.78;;;;;;;13.98;76.23;97500.59;1758117;81;25489;-80
2022/09/01 07:03:49;;;;;;;5.65;3.80;;;;;;;14.09;75.97;97500.86;1726727;83;27375;-83
2022/09/01 07:06:18;;;;;;;7.67;4.37;;;;;;;14.19;76.04;97494.33;1726999;81;25783;-80
2022/09/01 07:08:48;;;;;;;8.93;4.55;;;;;;;14.30;75.64;97489.45;1726736;83;25760;-81
2022/09/01 07:11:24;;;;;;;9.08;4.15;;;;;;;14.42;75.55;97498.48;1726563;83;25692;-80
2022/09/01 07:13:52;;;;;;;6.80;4.22;;;;;;;14.51;75.19;97493.00;1722965;83;25840;-81
2022/09/01 07:18:46;;;;;;;6.12;3.98;;;;;;;14.60;74.39;97497.59;1637173;86;26001;-80
2022/09/01 07:21:12;;;;;;;8.78;4.20;;;;;;;14.69;74.84;97486.13;1637463;87;25866;-80
2022/09/01 07:23:42;;;;;;;6.65;3.80;;;;;;;14.81;74.47;97488.02;1637434;87;26452;-79
2022/09/01 07:26:07;;;;;;;4.60;3.30;;;;;;;14.87;74.29;97481.62;1637466;87;25781;-80
2022/09/01 07:28:34;;;;;;;8.60;4.03;;;;;;;15.02;74.32;97482.81;1637570;87;27423;-80
2022/09/01 07:31:03;;;;;;;6.15;3.50;;;;;;;15.16;73.90;97477.95;1637368;87;25662;-80
2022/09/01 07:33:30;;;;;;;7.28;3.62;;;;;;;15.28;73.63;97478.77;1637387;87;25804;-80
2022/09/01 07:35:57;;;;;;;6.22;3.95;;;;;;;15.39;73.47;97483.34;1637301;87;25788;-81
2022/09/01 07:38:27;;;;;;;7.42;3.77;;;;;;;15.56;73.08;97484.00;1637485;87;25515;-81
2022/09/01 07:40:53;;;;;;;6.92;3.55;;;;;;;15.86;72.86;97488.67;1637441;87;27368;-79
2022/09/01 07:43:27;;;;;;;6.72;3.62;;;;;;;16.25;72.44;97486.13;1637275;87;25550;-79
2022/09/01 07:45:58;;;;;;;4.87;3.42;;;;;;;16.59;72.40;97485.08;1637298;87;25861;-80
2022/09/01 07:48:27;;;;;;;4.35;2.95;;;;;;;16.99;71.78;97479.47;1637209;86;25864;-81
2022/09/01 07:50:55;;;;;;;8.58;3.50;;;;;;;17.34;71.02;97474.22;1637349;87;25838;-81
2022/09/01 07:53:28;;;;;;;7.17;2.72;;;;;;;17.66;70.42;97475.73;1637266;86;27398;-80
2022/09/01 07:55:55;;;;;;;;;;;;;;;17.95;70.06;97477.18;1639610;87;25825;-79
2022/09/01 07:58:26;;;;;;;4.10;2.75;;;;;;;18.34;68.78;97473.22;1637521;87;25363;-81
2022/09/01 08:00:53;;;;;;;5.10;2.77;;;;;;;18.69;69.03;97474.64;1659515;85;26658;-80
2022/09/01 08:03:23;;;;;;;7.58;3.35;;;;;;;18.95;67.92;97468.27;1673219;85;25595;-81
2022/09/01 08:05:56;;;;;;;3.90;2.98;;;;;;;19.24;67.57;97467.88;1673142;85;27388;-80
2022/09/01 08:08:20;;;;;;;5.62;3.17;;;;;;;19.63;67.25;97467.02;1708344;83;25595;-79
2022/09/01 08:10:47;;;;;;;5.47;2.87;;;;;;;20.00;66.55;97470.98;1712226;83;26849;-81
2022/09/01 08:13:14;;;;;;;5.05;2.87;;;;;;;20.25;65.57;97466.93;1712394;83;26299;-80
2022/09/01 08:15:41;;;;;;;4.70;2.33;;;;;;;20.58;65.30;97471.64;1736076;81;25749;-79
2022/09/01 08:18:08;;;;;;;7.87;3.40;;;;;;;20.97;64.37;97475.48;1787411;78;27405;-80
2022/09/01 08:20:44;;;;;;;3.25;1.67;;;;;;;21.20;63.93;97462.56;1769292;81;25642;-80
2022/09/01 08:23:07;;;;;;;2.17;1.52;;;;;;;21.50;62.92;97473.18;1751017;81;25726;-79
2022/09/01 08:25:35;;;;;;;3.42;1.62;;;;;;;21.82;62.23;97462.63;1769380;80;25674;-79
2022/09/01 08:28:03;;;;;;;3.62;1.57;;;;;;;22.16;61.50;97461.92;1755282;81;25961;-80
2022/09/01 08:30:31;;;;;;;2.15;1.30;;;;;;;22.53;61.04;97475.98;1769479;80;27453;-80
2022/09/01 08:33:00;;;;;;;2.65;1.35;;;;;;;22.87;60.28;97467.74;1755336;81;25498;-77
2022/09/01 08:35:28;;;;;;;3.90;1.30;;;;;;;23.20;59.67;97474.86;1775371;80;25685;-78
2022/09/01 08:37:56;;;;;;;1.87;1.05;;;;;;;23.43;58.28;97471.31;1775429;80;25685;-78
2022/09/01 08:40:24;;;;;;;3.37;1.20;;;;;;;23.58;57.18;97470.35;1755364;81;25812;-78
2022/09/01 08:43:14;;;;;;;1.50;0.85;;;;;;;23.83;57.07;97471.42;1769394;81;28416;-76
2022/09/01 08:45:55;;;;;;;2.67;1.00;;;;;;;24.08;56.27;97480.48;1755362;81;25401;-79
2022/09/01 08:48:41;;;;;;;1.25;1.15;;;;;;;24.27;54.98;97484.91;1709475;82;26689;-78
2022/09/01 08:51:31;;;;;;;3.25;1.37;;;;;;;24.40;54.84;97485.55;1766523;80;26256;-77
2022/09/01 08:54:30;;;;;;;4.58;1.50;;;;;;;24.57;54.04;97486.42;1742086;82;25691;-76
2022/09/01 08:57:04;;;;;;;2.45;1.37;;;;;;;24.68;53.59;97482.38;1684060;85;28364;-77
2022/09/01 08:59:31;;;;;;;5.28;1.22;;;;;;;24.74;52.25;97488.09;1668186;86;25793;-77
2022/09/01 09:02:12;;;;;;;2.92;1.10;;;;;;;24.81;51.99;97484.11;1668371;86;25998;-77
2022/09/01 09:04:52;;;;;;;3.02;1.50;;;;;;;24.74;51.00;97475.67;1666635;86;26659;-77
2022/09/01 09:07:42;;;;;;;5.00;1.50;;;;;;;24.65;50.91;97482.97;1668383;86;25919;-79
2022/09/01 09:10:27;;;;;;;3.62;1.65;;;;;;;24.77;51.19;97474.22;1629647;87;27445;-77
2022/09/01 09:13:04;;;;;;;3.00;1.17;;;;;;;24.83;50.94;97475.80;1629564;88;25788;-78
2022/09/01 09:15:39;;;;;;;1.60;1.50;;;;;;;24.99;50.97;97469.49;1629587;88;25863;-77
2022/09/01 09:18:36;;;;;;;1.98;1.27;;;;;;;25.02;49.87;97475.77;1622130;88;25747;-76
2022/09/01 09:21:20;;;;;;;2.30;1.42;;;;;;;25.04;50.27;97472.15;1616899;88;26632;-77
2022/09/01 09:23:51;;;;;;;4.90;1.40;;;;;;;25.12;49.37;97481.11;1619188;88;27497;-78
2022/09/01 09:26:19;;;;;;;3.15;1.50;;;;;;;25.26;49.50;97468.16;1616547;88;25528;-78
2022/09/01 09:28:48;;;;;;;1.37;1.20;;;;;;;25.26;48.27;97466.77;1619139;88;25851;-77
2022/09/01 09:31:47;;;;;;;2.77;1.07;;;;;;;25.07;47.64;97471.55;1619714;88;25879;-77
2022/09/01 09:34:31;;;;;;;2.90;1.45;;;;;;;25.07;47.88;97468.23;1554092;91;25753;-77
2022/09/01 09:37:21;;;;;;;1.98;1.30;;;;;;;25.07;47.06;97470.99;1539194;93;27847;-79
2022/09/01 09:40:11;;;;;;;4.25;1.60;;;;;;;25.11;47.55;97467.07;1539063;93;25862;-78
2022/09/01 09:42:54;;;;;;;4.15;1.60;;;;;;;25.09;46.79;97472.89;1536470;93;25855;-78
2022/09/01 09:45:26;;;;;;;5.12;1.50;;;;;;;24.91;45.95;97461.84;1550959;91;26567;-78
2022/09/01 09:47:55;;;;;;;1.80;1.40;;;;;;;24.77;46.62;97464.00;1530916;93;25920;-78
2022/09/01 09:50:32;;;;;;;2.27;1.40;;;;;;;25.00;47.41;97474.69;1524147;93;27418;-77
2022/09/01 09:53:27;;;;;;;2.67;1.20;;;;;;;25.06;46.93;97475.43;1524290;93;25860;-78
2022/09/01 09:56:04;;;;;;;2.50;1.27;;;;;;;25.02;46.59;97474.39;1544578;90;25757;-77
2022/09/01 09:58:38;;;;;;;2.50;1.25;;;;;;;25.08;46.70;97478.72;1584497;89;26366;-76
2022/09/01 10:01:22;;;;;;;4.92;1.45;;;;;;;25.12;46.27;97474.20;1584605;89;25866;-77
2022/09/01 10:03:53;;;;;;;1.20;1.07;;;;;;;25.19;46.29;97484.31;1584581;89;28226;-76
2022/09/01 10:06:40;;;;;;;3.12;1.32;;;;;;;25.23;45.86;97478.45;1584634;89;25947;-77
2022/09/01 10:09:26;;;;;;;2.08;1.30;;;;;;;25.35;46.07;97468.29;1564130;91;25954;-78
2022/09/01 10:11:57;;;;;;;1.20;0.98;;;;;;;25.27;44.72;97473.12;1658980;85;26497;-77
2022/09/01 10:14:32;;;;;;;1.92;1.32;;;;;;;25.29;44.96;97470.87;1686326;85;25790;-77
2022/09/01 10:17:04;;;;;;;2.45;1.10;;;;;;;25.40;45.34;97474.52;1683530;85;27371;-77
2022/09/01 10:19:34;;;;;;;1.90;1.30;;;;;;;25.46;44.56;97478.84;1690116;84;25781;-77
2022/09/01 10:22:02;;;;;;;1.30;0.80;;;;;;;25.45;44.26;97468.09;1691367;84;25869;-77
2022/09/01 10:24:34;;;;;;;0.88;0.75;;;;;;;25.48;44.75;97477.13;1691256;84;26352;-77
2022/09/01 10:27:09;;;;;;;0.93;0.65;;;;;;;25.57;43.19;97471.17;1635005;87;25717;-77
2022/09/01 10:29:47;;;;;;;2.55;0.88;;;;;;;25.54;43.11;97470.95;1633050;87;27485;-77
2022/09/01 10:32:28;;;;;;;1.55;0.90;;;;;;;25.49;42.64;97469.92;1613035;88;25764;-77
2022/09/01 10:34:55;;;;;;;2.75;0.93;;;;;;;25.47;42.79;97474.14;1541642;91;25971;-76
2022/09/01 10:37:22;;;;;;;2.22;0.68;;;;;;;25.31;41.45;97465.31;1538943;93;26403;-78
2022/09/01 10:40:17;;;;;;;2.02;0.70;;;;;;;25.13;41.98;97471.70;1509205;94;25868;-76
2022/09/01 10:42:54;;;;;;;2.05;0.78;;;;;;;24.98;41.91;97470.61;1537117;92;27352;-77
2022/09/01 10:45:36;;;;;;;2.75;0.80;;;;;;;24.90;41.79;97471.25;1536790;93;25817;-77
2022/09/01 10:48:28;;;;;;;1.65;0.88;;;;;;;25.08;42.50;97466.29;1534965;93;25848;-77
2022/09/01 10:51:18;;;;;;;1.57;0.72;;;;;;;25.27;41.64;97468.41;1534956;92;25851;-78
2022/09/01 10:53:54;;;;;;;2.92;0.70;;;;;;;25.11;41.15;97463.75;1510623;94;25869;-76
2022/09/01 10:56:43;;;;;;;0.88;0.70;;;;;;;25.18;42.15;97467.48;1487388;96;27426;-77
2022/09/01 10:59:30;;;;;;;1.25;1.00;;;;;;;25.13;40.73;97467.56;1487292;96;25812;-76
2022/09/01 11:02:10;;;;;;;1.50;0.98;;;;;;;25.16;41.81;97460.05;1487125;96;25895;-77
2022/09/01 11:04:42;;;;;;;1.17;0.80;;;;;;;25.13;40.68;97460.66;1488076;95;25920;-76
2022/09/01 11:07:17;;;;;;;;;;;;;;;25.07;41.34;97453.60;1489875;96;25859;-76
2022/09/01 11:10:24;;;;;;;3.52;1.10;;;;;;;25.07;40.46;97445.31;1461861;98;28485;-74
2022/09/01 11:13:23;;;;;;;1.60;1.15;;;;;;;25.10;41.66;97450.23;1461830;98;25881;-76
2022/09/01 11:15:50;;;;;;;2.80;0.90;;;;;;;25.18;41.26;97445.38;1467645;96;25861;-75
2022/09/01 11:18:30;;;;;;;1.32;0.90;;;;;;;25.08;41.03;97449.72;1465810;96;25881;-75
2022/09/01 11:21:25;;;;;;;1.47;0.68;;;;;;;24.98;40.82;97449.91;1429912;100;25663;-75
2022/09/01 11:24:33;;;;;;;0.78;0.78;;;;;;;24.92;40.86;97444.16;1465450;97;28421;-76
2022/09/01 11:26:59;;;;;;;1.07;0.93;;;;;;;24.88;40.65;97450.02;1440233;99;25872;-75
2022/09/01 11:29:53;;;;;;;2.47;1.07;;;;;;;24.69;41.11;97450.90;1447442;97;25824;-75
2022/09/01 11:32:24;;;;;;;1.30;1.00;;;;;;;24.59;40.60;97448.31;1489274;95;25680;-74
2022/09/01 11:34:54;;;;;;;1.47;1.02;;;;;;;24.44;40.43;97438.88;1464268;96;25756;-75
2022/09/01 11:37:23;;;;;;;0.90;0.80;;;;;;;24.12;40.45;97446.52;1464168;98;27657;-75
2022/09/01 11:39:54;;;;;;;2.12;0.80;;;;;;;23.84;40.82;97446.88;1497657;95;25788;-75
2022/09/01 11:42:26;;;;;;;2.20;1.23;;;;;;;23.68;41.06;97450.94;1423028;100;25853;-75
2022/09/01 11:45:06;;;;;;;2.22;0.95;;;;;;;23.43;41.14;97453.41;1420581;100;26572;-75
2022/09/01 11:47:40;;;;;;;2.75;0.98;;;;;;;23.21;41.85;97448.97;1466264;95;25881;-75
2022/09/01 11:50:32;;;;;;;2.90;1.45;;;;;;;23.03;41.92;97451.92;1488315;95;27594;-75
2022/09/01 11:53:04;;;;;;;3.20;1.02;;;;;;;22.88;42.57;97450.13;1478591;96;25841;-75
2022/09/01 11:55:36;;;;;;;0.80;0.72;;;;;;;22.69;42.69;97448.35;1491408;94;26844;-75
2022/09/01 11:58:04;;;;;;;1.05;0.82;;;;;;;22.68;42.97;97445.33;1520470;93;25868;-75
2022/09/01 12:00:38;;;;;;;1.70;0.90;;;;;;;22.84;43.61;97448.23;1542231;93;25550;-75
2022/09/01 12:03:24;;;;;;;2.98;1.07;;;;;;;22.94;43.70;97449.53;1542624;91;27414;-75
2022/09/01 12:05:58;;;;;;;1.20;1.05;;;;;;;22.91;43.66;97450.11;1542417;91;25793;-75
2022/09/01 12:08:29;;;;;;;2.52;1.00;;;;;;;22.83;43.56;97443.83;1542181;93;25839;-76
2022/09/01 12:11:20;;;;;;;2.50;1.15;;;;;;;22.76;43.43;97439.23;1542525;91;25991;-76
2022/09/01 12:14:09;;;;;;;1.90;0.90;;;;;;;22.78;43.46;97432.89;1542676;93;25850;-75
2022/09/01 12:16:40;;;;;;;2.10;0.95;;;;;;;22.80;43.56;97429.30;1542528;93;27255;-76